Time,TemperatureF,DewpointF,PressureIn,WindDirection,WindDirectionDegrees,WindSpeedMPH,WindSpeedGustMPH,Humidity,HourlyPrecipIn,Conditions,Clouds,dailyrainin,SoftwareType,DateUTC
2016-07-27 00:00:00,75.8,45.3,30.08,North,0,0.0,0.0,34,0.00,,,0.00,WUHU216HW,2016-07-27 07:00:00,
2016-07-27 00:05:00,75.8,44.6,30.08,North,0,0.0,0.0,33,0.00,,,0.00,WUHU216HW,2016-07-27 07:05:00,
2016-07-27 00:30:00,74.9,44.5,30.08,North,0,0.0,0.0,34,0.00,,,0.00,WUHU216HW,2016-07-27 07:30:00,
2016-07-27 00:35:00,74.9,44.5,30.08,North,0,0.0,0.0,34,0.00,,,0.00,WUHU216HW,2016-07-27 07:35:00,
2016-07-27 00:59:00,74.0,44.4,30.07,North,0,0.0,0.0,35,0.00,,,0.00,WUHU216HW,2016-07-27 07:59:00,
2016-07-27 01:00:00,74.0,44.4,30.07,North,0,0.0,0.0,35,0.00,,,0.00,WUHU216HW,2016-07-27 08:00:00,
2016-07-27 01:05:00,74.0,44.4,30.07,North,0,0.0,0.0,35,0.00,,,0.00,WUHU216HW,2016-07-27 08:05:00,
2016-07-27 01:29:00,73.4,43.9,30.07,North,0,0.0,0.0,35,0.00,,,0.00,WUHU216HW,2016-07-27 08:29:00,
2016-07-27 01:30:00,73.4,43.9,30.07,North,0,0.0,0.0,35,0.00,,,0.00,WUHU216HW,2016-07-27 08:30:00,
2016-07-27 01:35:00,73.4,43.9,30.07,North,0,0.0,0.0,35,0.00,,,0.00,WUHU216HW,2016-07-27 08:35:00,
2016-07-27 02:00:00,72.9,43.5,30.07,North,0,0.0,0.0,35,0.00,,,0.00,WUHU216HW,2016-07-27 09:00:00,
2016-07-27 02:05:00,72.9,43.5,30.07,North,0,0.0,0.0,35,0.00,,,0.00,WUHU216HW,2016-07-27 09:05:00,
2016-07-27 02:30:00,72.2,42.8,30.07,North,0,0.0,0.0,35,0.00,,,0.00,WUHU216HW,2016-07-27 09:30:00,
2016-07-27 02:35:00,72.2,42.8,30.07,North,0,0.0,0.0,35,0.00,,,0.00,WUHU216HW,2016-07-27 09:35:00,
2016-07-27 03:00:00,72.0,42.7,30.07,North,0,0.0,0.0,35,0.00,,,0.00,WUHU216HW,2016-07-27 10:00:00,
2016-07-27 03:05:00,72.0,42.7,30.07,North,0,0.0,0.0,35,0.00,,,0.00,WUHU216HW,2016-07-27 10:05:00,
2016-07-27 03:29:00,71.1,42.7,30.07,North,0,0.0,0.0,36,0.00,,,0.00,WUHU216HW,2016-07-27 10:29:00,
2016-07-27 03:30:00,71.1,42.7,30.07,North,0,0.0,0.0,36,0.00,,,0.00,WUHU216HW,2016-07-27 10:30:00,
2016-07-27 03:35:00,71.1,42.7,30.07,North,0,0.0,0.0,36,0.00,,,0.00,WUHU216HW,2016-07-27 10:35:00,
2016-07-27 04:00:00,70.6,41.4,30.07,North,0,0.0,0.0,35,0.00,,,0.00,WUHU216HW,2016-07-27 11:00:00,
2016-07-27 04:30:00,70.9,41.1,30.07,North,0,0.0,0.0,34,0.00,,,0.00,WUHU216HW,2016-07-27 11:30:00,
2016-07-27 04:31:00,70.9,41.1,30.07,North,0,0.0,0.0,34,0.00,,,0.00,WUHU216HW,2016-07-27 11:31:00,
2016-07-27 04:36:00,70.9,41.1,30.07,North,0,0.0,0.0,34,0.00,,,0.00,WUHU216HW,2016-07-27 11:36:00,
2016-07-27 05:00:00,69.8,40.1,30.07,North,0,0.0,0.0,34,0.00,,,0.00,WUHU216HW,2016-07-27 12:00:00,
2016-07-27 05:01:00,69.8,40.1,30.07,North,0,0.0,0.0,34,0.00,,,0.00,WUHU216HW,2016-07-27 12:01:00,
2016-07-27 05:06:00,69.8,40.1,30.07,North,0,0.0,0.0,34,0.00,,,0.00,WUHU216HW,2016-07-27 12:06:00,
2016-07-27 05:31:00,70.6,39.3,30.07,North,0,0.0,0.0,32,0.00,,,0.00,WUHU216HW,2016-07-27 12:31:00,
2016-07-27 05:36:00,70.6,39.3,30.07,North,0,0.0,0.0,32,0.00,,,0.00,WUHU216HW,2016-07-27 12:36:00,
2016-07-27 06:00:00,70.6,39.3,30.08,North,0,0.0,0.0,32,0.00,,,0.00,WUHU216HW,2016-07-27 13:00:00,
2016-07-27 06:05:00,70.6,39.3,30.08,North,0,0.0,0.0,32,0.00,,,0.00,WUHU216HW,2016-07-27 13:05:00,
2016-07-27 06:30:00,70.6,38.4,30.08,North,0,0.0,0.0,31,0.00,,,0.00,WUHU216HW,2016-07-27 13:30:00,
2016-07-27 06:35:00,70.6,38.4,30.08,North,0,0.0,0.0,31,0.00,,,0.00,WUHU216HW,2016-07-27 13:35:00,
2016-07-27 07:00:00,71.6,39.4,30.08,North,0,0.0,0.0,31,0.00,,,0.00,WUHU216HW,2016-07-27 14:00:00,
2016-07-27 07:05:00,71.6,39.4,30.08,North,0,0.0,0.0,31,0.00,,,0.00,WUHU216HW,2016-07-27 14:05:00,
2016-07-27 07:30:00,79.2,44.1,30.09,North,0,0.0,0.0,29,0.00,,,0.00,WUHU216HW,2016-07-27 14:30:00,
2016-07-27 07:35:00,79.2,44.1,30.09,North,0,0.0,0.0,29,0.00,,,0.00,WUHU216HW,2016-07-27 14:35:00,
2016-07-27 08:00:00,89.5,44.3,30.09,North,0,0.0,0.0,21,0.00,,,0.00,WUHU216HW,2016-07-27 15:00:00,
2016-07-27 08:05:00,89.5,44.3,30.09,North,0,0.0,0.0,21,0.00,,,0.00,WUHU216HW,2016-07-27 15:05:00,
2016-07-27 08:30:00,93.4,44.6,30.09,North,0,0.0,0.0,19,0.00,,,0.00,WUHU216HW,2016-07-27 15:30:00,
2016-07-27 08:35:00,93.4,44.6,30.09,North,0,0.0,0.0,19,0.00,,,0.00,WUHU216HW,2016-07-27 15:35:00,
2016-07-27 09:00:00,96.8,47.5,30.09,North,0,0.0,0.0,19,0.00,,,0.00,WUHU216HW,2016-07-27 16:00:00,
2016-07-27 09:05:00,96.8,47.5,30.09,North,0,0.0,0.0,19,0.00,,,0.00,WUHU216HW,2016-07-27 16:05:00,
2016-07-27 09:30:00,94.7,50.8,30.10,North,0,0.0,0.0,23,0.00,,,0.00,WUHU216HW,2016-07-27 16:30:00,
2016-07-27 09:35:00,94.7,50.8,30.10,North,0,0.0,0.0,23,0.00,,,0.00,WUHU216HW,2016-07-27 16:35:00,
2016-07-27 09:59:00,97.6,48.1,30.10,North,0,0.0,0.0,19,0.00,,,0.00,WUHU216HW,2016-07-27 16:59:00,
2016-07-27 10:00:00,97.6,48.1,30.10,North,0,0.0,0.0,19,0.00,,,0.00,WUHU216HW,2016-07-27 17:00:00,
2016-07-27 10:05:00,97.6,48.1,30.10,North,0,0.0,0.0,19,0.00,,,0.00,WUHU216HW,2016-07-27 17:05:00,
2016-07-27 10:29:00,97.9,43.0,30.10,North,0,0.0,0.0,16,0.00,,,0.00,WUHU216HW,2016-07-27 17:29:00,
2016-07-27 10:30:00,97.9,43.0,30.10,North,0,0.0,0.0,16,0.00,,,0.00,WUHU216HW,2016-07-27 17:30:00,
2016-07-27 10:35:00,97.9,43.0,30.10,North,0,0.0,0.0,16,0.00,,,0.00,WUHU216HW,2016-07-27 17:35:00,
2016-07-27 11:00:00,97.9,41.2,30.10,North,0,0.0,0.0,15,0.00,,,0.00,WUHU216HW,2016-07-27 18:00:00,
2016-07-27 11:05:00,97.9,41.2,30.10,North,0,0.0,0.0,15,0.00,,,0.00,WUHU216HW,2016-07-27 18:05:00,
2016-07-27 11:30:00,99.0,43.8,30.10,North,0,0.0,0.0,16,0.00,,,0.00,WUHU216HW,2016-07-27 18:30:00,
2016-07-27 11:31:00,99.0,43.8,30.10,North,0,0.0,0.0,16,0.00,,,0.00,WUHU216HW,2016-07-27 18:31:00,
2016-07-27 11:36:00,99.0,43.8,30.10,North,0,0.0,0.0,16,0.00,,,0.00,WUHU216HW,2016-07-27 18:36:00,
2016-07-27 12:00:00,99.4,44.1,30.10,North,0,0.0,0.0,16,0.00,,,0.00,WUHU216HW,2016-07-27 19:00:00,
2016-07-27 12:01:00,99.4,44.1,30.10,North,0,0.0,0.0,16,0.00,,,0.00,WUHU216HW,2016-07-27 19:01:00,
2016-07-27 12:06:00,99.4,44.1,30.10,North,0,0.0,0.0,16,0.00,,,0.00,WUHU216HW,2016-07-27 19:06:00,